Kaiser — NHJK — position and weather

sailwx.info

Track history (hours):
 
Tides and Currents Weather Stations Pressure Air Temp Water Temp Dewpoint Dewpoint Depression Visibility Wind Speed Wind Dir Waves Ship Positions

Kaiser

Last reported at 2018-Apr-18 03:05 UTC. Time now 2018-Apr-19 13:10 UTC.
Position N 32°31' W 117°38'.

Length 191 m.

Type: Tanker. MMSI: 303849000.

Date/timePositionNaut miles runAvg speedWind from/ knotsBaromVisibWave heightAir tempDewpointWater temp
2018-Apr-18 03:05N 32°31' W 117°38'113.8
2018-Apr-18 03:00N 32°32' W 117°38'611.6
2018-Apr-18 02:30N 32°35' W 117°32'612.5
2018-Apr-18 02:00N 32°36' W 117°24'2 0.2
2018-Apr-17 14:55N 32°35' W 117°23'512.1
2018-Apr-17 14:30N 32°36' W 117°29'611.7
2018-Apr-17 14:00N 32°36' W 117°36'510.2
2018-Apr-17 13:30N 32°36' W 117°42'612.5
2018-Apr-17 13:00N 32°36' W 117°49'612.4
2018-Apr-17 12:30N 32°36' W 117°57'22 1.1
2018-Apr-16 16:05N 32°45' W 117°32'1 9.1
2018-Apr-16 16:00N 32°45' W 117°31'4 8.6
2018-Apr-16 15:30N 32°48' W 117°27'3 6.3
2018-Apr-16 15:00N 32°50' W 117°25'4 7.5
2018-Apr-16 14:30N 32°54' W 117°26'3 6.9
2018-Apr-16 14:00N 32°57' W 117°24'3 5.4
2018-Apr-16 13:30N 32°60' W 117°26'3 6.8
2018-Apr-16 13:00N 33°02' W 117°29'3 6.6
2018-Apr-16 12:30N 33°04' W 117°26'2 4.2
2018-Apr-16 12:00N 33°02' W 117°25'3 6.4
2018-Apr-16 11:30N 32°59' W 117°25'3 6.3
2018-Apr-16 11:00N 32°56' W 117°24'3 5.7
2018-Apr-16 10:30N 32°59' W 117°25'4 7.6
2018-Apr-16 10:00N 33°03' W 117°25'1 1.8
2018-Apr-16 09:30N 33°03' W 117°25'3 6.2
2018-Apr-16 09:00N 33°00' W 117°24'3 6.2
2018-Apr-16 08:30N 32°57' W 117°23'3 6.0
2018-Apr-16 08:00N 32°54' W 117°23'3 6.0
2018-Apr-16 07:30N 32°51' W 117°22'3 6.6
2018-Apr-16 07:00N 32°55' W 117°23'4 7.6
2018-Apr-16 06:30N 32°58' W 117°23'4 7.5
2018-Apr-16 06:00N 33°02' W 117°24'3 5.3
2018-Apr-16 05:30N 33°05' W 117°24'3 6.3
2018-Apr-16 05:00N 33°02' W 117°24'3 6.2
2018-Apr-16 04:30N 32°58' W 117°23'3 6.1
2018-Apr-16 04:00N 32°55' W 117°23'3 6.0
2018-Apr-16 03:30N 32°52' W 117°23'2 3.5
2018-Apr-16 03:00N 32°51' W 117°23'4 7.3
2018-Apr-16 02:31N 32°54' W 117°23'4 7.5
2018-Apr-16 02:00N 32°58' W 117°24'4 7.5
2018-Apr-16 01:30N 33°02' W 117°25'3 5.8
2018-Apr-16 01:00N 33°05' W 117°25'3 5.8
2018-Apr-16 00:30N 33°02' W 117°24'3 5.7
2018-Apr-16 00:00N 32°59' W 117°24'3 5.8
2018-Apr-15 23:30N 32°56' W 117°24'3 5.9
2018-Apr-15 23:00N 32°53' W 117°23'2 4.2
2018-Apr-15 22:30N 32°51' W 117°24'4 7.3
2018-Apr-15 22:00N 32°55' W 117°24'4 7.2
2018-Apr-15 21:30N 32°58' W 117°24'4 7.3
2018-Apr-15 21:00N 33°02' W 117°25'1 2.6
2018-Apr-15 20:30N 33°01' W 117°23'3 6.1
2018-Apr-15 20:00N 32°58' W 117°23'3 6.2
2018-Apr-15 19:30N 32°55' W 117°23'3 6.4
2018-Apr-15 19:00N 32°52' W 117°24'3 6.2
2018-Apr-15 18:30N 32°49' W 117°25'3 7.0
2018-Apr-15 18:00N 32°47' W 117°28'4 7.2
2018-Apr-15 17:30N 32°44' W 117°32'3 7.2
2018-Apr-15 17:00N 32°43' W 117°35'  
2018-Apr-12 12:15N 32°35' W 117°23'2 9.3
2018-Apr-12 12:00N 32°35' W 117°25'4 8.7
2018-Apr-12 11:30N 32°37' W 117°30'510.7
2018-Apr-12 11:00N 32°42' W 117°32'510.8
2018-Apr-12 10:30N 32°47' W 117°32'511.0
2018-Apr-12 10:00N 32°52' W 117°31'611.0
2018-Apr-12 09:30N 32°57' W 117°28'510.8
2018-Apr-12 09:00N 33°03' W 117°27'1 2.1
2018-Apr-12 08:30N 33°02' W 117°27'4 8.3
2018-Apr-12 08:00N 32°58' W 117°26'4 8.4
2018-Apr-12 07:30N 32°54' W 117°24'1 1.6
2018-Apr-12 07:01N 32°54' W 117°23'5 9.7
2018-Apr-12 06:30N 32°59' W 117°24'2 3.3
2018-Apr-12 06:01N 32°57' W 117°24'4 8.3
2018-Apr-12 05:31N 32°53' W 117°23'0 0.9
2018-Apr-12 05:00N 32°53' W 117°23'5 9.7
2018-Apr-12 04:30N 32°58' W 117°24'1 2.5
2018-Apr-12 04:00N 32°59' W 117°23'4 8.4
2018-Apr-12 03:31N 32°55' W 117°23'3 6.3
2018-Apr-12 03:01N 32°53' W 117°25'5 9.2
2018-Apr-12 02:30N 32°49' W 117°29'511.1
2018-Apr-12 02:00N 32°45' W 117°33'612.4
2018-Apr-12 01:31N 32°40' W 117°37'611.9
2018-Apr-12 01:01N 32°36' W 117°42'  
Track history (hours):
 
Tides and Currents Weather Stations Pressure Air Temp Water Temp Dewpoint Dewpoint Depression Visibility Wind Speed Wind Dir Waves Ship Positions

Kaiser

Last reported at 2018-Apr-18 03:05 UTC. Time now 2018-Apr-19 13:10 UTC.
Position N 32°31' W 117°38'.

Length 191 m.

Type: Tanker. MMSI: 303849000.

Date/timePositionNaut miles runAvg speedWind from/ knotsBaromVisibWave heightAir tempDewpointWater temp
2018-Apr-18 03:05N 32°31' W 117°38'113.8
2018-Apr-18 03:00N 32°32' W 117°38'611.6
2018-Apr-18 02:30N 32°35' W 117°32'612.5
2018-Apr-18 02:00N 32°36' W 117°24'2 0.2
2018-Apr-17 14:55N 32°35' W 117°23'512.1
2018-Apr-17 14:30N 32°36' W 117°29'611.7
2018-Apr-17 14:00N 32°36' W 117°36'510.2
2018-Apr-17 13:30N 32°36' W 117°42'612.5
2018-Apr-17 13:00N 32°36' W 117°49'612.4
2018-Apr-17 12:30N 32°36' W 117°57'22 1.1
2018-Apr-16 16:05N 32°45' W 117°32'1 9.1
2018-Apr-16 16:00N 32°45' W 117°31'4 8.6
2018-Apr-16 15:30N 32°48' W 117°27'3 6.3
2018-Apr-16 15:00N 32°50' W 117°25'4 7.5
2018-Apr-16 14:30N 32°54' W 117°26'3 6.9
2018-Apr-16 14:00N 32°57' W 117°24'3 5.4
2018-Apr-16 13:30N 32°60' W 117°26'3 6.8
2018-Apr-16 13:00N 33°02' W 117°29'3 6.6
2018-Apr-16 12:30N 33°04' W 117°26'2 4.2
2018-Apr-16 12:00N 33°02' W 117°25'3 6.4
2018-Apr-16 11:30N 32°59' W 117°25'3 6.3
2018-Apr-16 11:00N 32°56' W 117°24'3 5.7
2018-Apr-16 10:30N 32°59' W 117°25'4 7.6
2018-Apr-16 10:00N 33°03' W 117°25'1 1.8
2018-Apr-16 09:30N 33°03' W 117°25'3 6.2
2018-Apr-16 09:00N 33°00' W 117°24'3 6.2
2018-Apr-16 08:30N 32°57' W 117°23'3 6.0
2018-Apr-16 08:00N 32°54' W 117°23'3 6.0
2018-Apr-16 07:30N 32°51' W 117°22'3 6.6
2018-Apr-16 07:00N 32°55' W 117°23'4 7.6
2018-Apr-16 06:30N 32°58' W 117°23'4 7.5
2018-Apr-16 06:00N 33°02' W 117°24'3 5.3
2018-Apr-16 05:30N 33°05' W 117°24'3 6.3
2018-Apr-16 05:00N 33°02' W 117°24'3 6.2
2018-Apr-16 04:30N 32°58' W 117°23'3 6.1
2018-Apr-16 04:00N 32°55' W 117°23'3 6.0
2018-Apr-16 03:30N 32°52' W 117°23'2 3.5
2018-Apr-16 03:00N 32°51' W 117°23'4 7.3
2018-Apr-16 02:31N 32°54' W 117°23'4 7.5
2018-Apr-16 02:00N 32°58' W 117°24'4 7.5
2018-Apr-16 01:30N 33°02' W 117°25'3 5.8
2018-Apr-16 01:00N 33°05' W 117°25'3 5.8
2018-Apr-16 00:30N 33°02' W 117°24'3 5.7
2018-Apr-16 00:00N 32°59' W 117°24'3 5.8
2018-Apr-15 23:30N 32°56' W 117°24'3 5.9
2018-Apr-15 23:00N 32°53' W 117°23'2 4.2
2018-Apr-15 22:30N 32°51' W 117°24'4 7.3
2018-Apr-15 22:00N 32°55' W 117°24'4 7.2
2018-Apr-15 21:30N 32°58' W 117°24'4 7.3
2018-Apr-15 21:00N 33°02' W 117°25'1 2.6
2018-Apr-15 20:30N 33°01' W 117°23'3 6.1
2018-Apr-15 20:00N 32°58' W 117°23'3 6.2
2018-Apr-15 19:30N 32°55' W 117°23'3 6.4
2018-Apr-15 19:00N 32°52' W 117°24'3 6.2
2018-Apr-15 18:30N 32°49' W 117°25'3 7.0
2018-Apr-15 18:00N 32°47' W 117°28'4 7.2
2018-Apr-15 17:30N 32°44' W 117°32'3 7.2
2018-Apr-15 17:00N 32°43' W 117°35'  
2018-Apr-12 12:15N 32°35' W 117°23'2 9.3
2018-Apr-12 12:00N 32°35' W 117°25'4 8.7
2018-Apr-12 11:30N 32°37' W 117°30'510.7
2018-Apr-12 11:00N 32°42' W 117°32'510.8
2018-Apr-12 10:30N 32°47' W 117°32'511.0
2018-Apr-12 10:00N 32°52' W 117°31'611.0
2018-Apr-12 09:30N 32°57' W 117°28'510.8
2018-Apr-12 09:00N 33°03' W 117°27'1 2.1
2018-Apr-12 08:30N 33°02' W 117°27'4 8.3
2018-Apr-12 08:00N 32°58' W 117°26'4 8.4
2018-Apr-12 07:30N 32°54' W 117°24'1 1.6
2018-Apr-12 07:01N 32°54' W 117°23'5 9.7
2018-Apr-12 06:30N 32°59' W 117°24'2 3.3
2018-Apr-12 06:01N 32°57' W 117°24'4 8.3
2018-Apr-12 05:31N 32°53' W 117°23'0 0.9
2018-Apr-12 05:00N 32°53' W 117°23'5 9.7
2018-Apr-12 04:30N 32°58' W 117°24'1 2.5
2018-Apr-12 04:00N 32°59' W 117°23'4 8.4
2018-Apr-12 03:31N 32°55' W 117°23'3 6.3
2018-Apr-12 03:01N 32°53' W 117°25'5 9.2
2018-Apr-12 02:30N 32°49' W 117°29'511.1
2018-Apr-12 02:00N 32°45' W 117°33'612.4
2018-Apr-12 01:31N 32°40' W 117°37'611.9
2018-Apr-12 01:01N 32°36' W 117°42'  

Dump ship's entire track history